Airfield :
LOGIN :

Register | Disclaimer

   EN    FR    IT 

 










Legend :    VFR   Marginal VFR   IFR   Intensive IFR   Very Intensive IFR
Visi :
Ceiling :
>= 8 km
>= 3000ft
5 to 8 km
1000 to 3000 ft
1500m to 5 km
500 to 1000 ft
800 to 1500m
200 to 500 ft
< 800m
< 200 ft
Symbols :   Thunderstorms  Fog  Heavy snow  Heavy precipitations  Wind > 20 kt
SIGMETs :     Misc.  Thunderstorms  Icing  Turbulence  Mountain Waves  Volcanic Ashes







- Airport Elevation : 386 ft
- IATA code : QOE


ETNN - Nörvenich Airforce Base

CURRENT METAR :
  • 141820Z 21003KT 9999 FEW010 SCT026 BKN100 03/01 Q0991 BLU

EXPIRED METARs :
  • 141720Z 16004KT 9999 FEW010 SCT020 BKN130 03/01 Q0992 BLU
  • 141620Z 27011KT 8000 -SHRA SCT010 BKN028 BKN100 04/01 Q0993 BLU

TAF TAF ETNN
Valid from the 14 at 15:00 until the 15 at 00:00 UTC


141400Z 1415/1424 24010G20KT 9999 NSW FEW012 BKN040
TEMPO 1415/1424 27020G30KT 4000 SHRA BKN012 BKN020TCU
PROB30 1415/1424 28022G33KT 3000 TSGSSN SCT005 BKN008CB
BECMG 1416/1418 17006KT 9999 NSW FEW012 BKN040 CANCEL BY ETGL
No reported NOTAMs for that airfield.
1 SIGMET reported for the Langen FIR (EDGG) :
 
Severe turbulence
EDGG SIGMET 3 VALID 141744/141930 EDZF
EDGG LANGEN FIR SEV TURB OBS S OF N4840 FL180/240 STNR NC=



MET'MAP, your aeronautical weather chart ! - Copyright ORBIFLY December 2007 - Disclaimer

ORBIFLY MET'MAP TEAM :

Programming & Development : Alexandra Zaïnal
Concept & Development : Baudouin d'Aumeries
Co-Development & Prog : Marc-Olivier Méhu
Technical & hardware support : Manuel Goepfert

Contact : metmap@orbifly.com




SOURCES & CREDITS :

   NOAA